createdAt,value
2019-03-03T00:02:17.589Z,70.33
2019-03-03T00:04:44.998Z,70.40
2019-03-03T00:07:12.534Z,70.35
2019-03-03T00:09:39.919Z,70.46
2019-03-03T00:12:07.312Z,70.53
2019-03-03T00:14:34.714Z,70.42
2019-03-03T00:17:02.122Z,70.72
2019-03-03T00:19:29.560Z,70.93
2019-03-03T00:21:56.967Z,70.93
2019-03-03T00:24:24.500Z,70.74
2019-03-03T00:26:51.984Z,70.55
2019-03-03T00:29:19.465Z,70.37
2019-03-03T00:31:46.872Z,70.32
2019-03-03T00:34:14.481Z,70.31
2019-03-03T00:36:47.522Z,70.32
2019-03-03T00:42:10.035Z,69.31
2019-03-03T00:44:39.940Z,69.33
2019-03-03T00:47:13.055Z,69.79
2019-03-03T00:49:40.467Z,70.47
2019-03-03T00:52:17.830Z,70.72
2019-03-03T00:54:46.627Z,70.98
2019-03-03T00:57:15.837Z,71.30
2019-03-03T00:59:48.256Z,71.50
2019-03-03T01:02:31.537Z,71.67
2019-03-03T01:05:18.797Z,71.79
2019-03-03T01:07:48.991Z,71.96
2019-03-03T01:10:19.904Z,72.12
2019-03-03T01:12:49.217Z,72.14
2019-03-03T01:15:17.031Z,72.38
2019-03-03T01:17:45.317Z,72.50
2019-03-03T01:20:27.560Z,72.47
2019-03-03T01:23:00.491Z,72.54
2019-03-03T01:25:27.938Z,72.79
2019-03-03T01:27:55.335Z,73.07
2019-03-03T01:30:22.787Z,73.16
2019-03-03T01:32:50.232Z,73.14
2019-03-03T01:35:17.626Z,73.10
2019-03-03T01:37:45.039Z,72.87
2019-03-03T01:40:12.450Z,72.73
2019-03-03T01:42:39.837Z,72.58
2019-03-03T01:45:10.750Z,72.50
2019-03-03T01:47:38.152Z,72.49
2019-03-03T01:50:05.562Z,72.54
2019-03-03T01:52:32.958Z,72.39
2019-03-03T01:55:00.457Z,72.60
2019-03-03T01:57:27.812Z,72.62
2019-03-03T01:59:55.203Z,72.87
2019-03-03T02:02:22.614Z,72.89
2019-03-03T02:04:50.005Z,72.85
2019-03-03T02:07:17.394Z,72.92
2019-03-03T02:09:44.804Z,72.92
2019-03-03T02:12:12.197Z,72.96
2019-03-03T02:14:39.631Z,72.95
2019-03-03T02:17:07.011Z,72.86
2019-03-03T02:19:34.428Z,72.79
2019-03-03T02:22:01.834Z,72.73
2019-03-03T02:24:29.232Z,72.86
2019-03-03T02:26:56.619Z,73.09
2019-03-03T02:29:24.090Z,73.20
2019-03-03T02:31:51.507Z,73.39
2019-03-03T02:34:18.902Z,73.69
2019-03-03T02:36:46.848Z,73.90
2019-03-03T02:39:15.086Z,74.27
2019-03-03T02:41:42.499Z,74.33
2019-03-03T02:44:09.900Z,74.29
2019-03-03T02:46:37.292Z,74.43
2019-03-03T02:49:04.715Z,74.51
2019-03-03T02:51:32.106Z,74.74
2019-03-03T02:53:59.684Z,74.95
2019-03-03T02:56:27.087Z,75.26
2019-03-03T02:58:55.417Z,75.44
2019-03-03T03:01:22.875Z,75.56
2019-03-03T03:03:50.333Z,75.77
2019-03-03T03:06:20.565Z,75.90
2019-03-03T03:08:53.676Z,75.89
2019-03-03T03:11:21.516Z,75.91
2019-03-03T03:13:48.924Z,75.62
2019-03-03T03:16:20.773Z,75.49
2019-03-03T03:18:50.990Z,75.42
2019-03-03T03:21:20.730Z,75.49
2019-03-03T03:23:53.852Z,75.40
2019-03-03T03:26:26.840Z,75.16
2019-03-03T03:29:10.098Z,75.00
2019-03-03T03:31:43.457Z,75.23
2019-03-03T03:37:03.510Z,74.63
2019-03-03T03:39:36.588Z,74.28
2019-03-03T03:42:14.780Z,74.38
2019-03-03T03:44:47.871Z,74.40
2019-03-03T03:47:32.961Z,74.37
2019-03-03T03:50:01.298Z,74.39
2019-03-03T03:55:24.829Z,74.03
2019-03-03T03:58:08.106Z,74.04
2019-03-03T04:00:39.994Z,74.34
2019-03-03T04:03:15.746Z,74.55
2019-03-03T04:05:58.968Z,74.44
2019-03-03T04:08:28.918Z,74.57
2019-03-03T04:13:48.905Z,73.68
2019-03-03T04:16:18.699Z,73.65
2019-03-03T04:18:48.919Z,74.11
2019-03-03T04:21:16.330Z,74.67
2019-03-03T04:23:45.232Z,75.31
2019-03-03T04:26:13.087Z,75.61
2019-03-03T04:28:55.477Z,75.60
2019-03-03T04:31:23.802Z,75.39
2019-03-03T04:33:51.194Z,75.40
2019-03-03T04:36:18.586Z,75.43
2019-03-03T04:39:00.866Z,75.18
2019-03-03T04:41:43.987Z,74.90
2019-03-03T04:44:11.391Z,74.84
2019-03-03T04:46:40.605Z,74.94
2019-03-03T04:49:12.899Z,75.07
2019-03-03T04:51:54.141Z,75.00
2019-03-03T04:54:33.232Z,75.04
2019-03-03T04:59:57.997Z,74.84
2019-03-03T05:02:36.294Z,74.60
2019-03-03T05:05:05.482Z,74.43
2019-03-03T05:07:36.742Z,74.36
2019-03-03T05:10:07.765Z,74.29
2019-03-03T05:12:39.083Z,74.25
2019-03-03T05:15:11.929Z,74.26
2019-03-03T05:17:42.288Z,74.01
2019-03-03T05:20:09.703Z,73.82
2019-03-03T05:22:37.134Z,73.97
2019-03-03T05:25:04.536Z,73.92
2019-03-03T05:27:31.951Z,73.93
2019-03-03T05:29:59.354Z,73.95
2019-03-03T05:32:26.825Z,74.21
2019-03-03T05:34:54.206Z,74.51
2019-03-03T05:37:21.613Z,74.74
2019-03-03T05:39:49.043Z,75.06
2019-03-03T05:42:16.439Z,75.16
2019-03-03T05:44:43.853Z,74.90
2019-03-03T05:47:11.272Z,74.69
2019-03-03T05:49:38.684Z,74.86
2019-03-03T05:52:06.080Z,75.04
2019-03-03T05:54:33.495Z,75.43
2019-03-03T05:57:00.901Z,75.89
2019-03-03T05:59:28.315Z,76.21
2019-03-03T06:01:55.705Z,76.24
2019-03-03T06:04:23.107Z,76.32
2019-03-03T06:06:50.646Z,76.26
2019-03-03T06:09:18.138Z,76.16
2019-03-03T06:11:45.551Z,75.85
2019-03-03T06:14:12.997Z,75.61
2019-03-03T06:16:40.407Z,75.40
2019-03-03T06:19:07.859Z,75.08
2019-03-03T06:21:35.246Z,74.86
2019-03-03T06:24:02.791Z,74.96
2019-03-03T06:26:30.182Z,75.13
2019-03-03T06:28:57.583Z,74.94
2019-03-03T06:31:25.011Z,74.91
2019-03-03T06:33:52.421Z,74.63
2019-03-03T06:36:19.866Z,74.24
2019-03-03T06:38:47.269Z,73.62
2019-03-03T06:41:14.771Z,73.09
2019-03-03T06:43:42.164Z,72.56
2019-03-03T06:46:09.563Z,72.62
2019-03-03T06:48:37.219Z,72.74
2019-03-03T06:51:04.783Z,72.51
2019-03-03T06:53:32.173Z,71.96
2019-03-03T06:55:59.779Z,71.79
2019-03-03T06:58:27.167Z,71.91
2019-03-03T07:00:54.588Z,71.78
2019-03-03T07:03:21.983Z,71.39
2019-03-03T07:05:49.558Z,70.82
2019-03-03T07:08:16.986Z,70.52
2019-03-03T07:10:44.388Z,70.31
2019-03-03T07:13:11.799Z,69.80
2019-03-03T07:15:39.186Z,69.25
2019-03-03T07:18:06.616Z,68.78
2019-03-03T07:20:34.099Z,68.25
2019-03-03T07:23:01.548Z,67.66
2019-03-03T07:25:28.947Z,67.58
2019-03-03T07:27:56.334Z,67.96
2019-03-03T07:30:23.927Z,68.03
2019-03-03T07:33:06.198Z,67.81
2019-03-03T07:35:33.627Z,67.15
2019-03-03T07:38:01.018Z,66.64
2019-03-03T07:40:28.423Z,66.01
2019-03-03T07:42:55.886Z,65.52
2019-03-03T07:45:23.283Z,65.68
2019-03-03T07:47:50.703Z,66.20
2019-03-03T07:50:18.147Z,65.72
2019-03-03T07:52:45.563Z,65.97
2019-03-03T07:55:13.061Z,66.08
2019-03-03T07:57:40.448Z,65.73
2019-03-03T08:00:10.631Z,64.74
2019-03-03T08:02:38.179Z,64.32
2019-03-03T08:05:05.586Z,64.08
2019-03-03T08:07:33.003Z,63.49
2019-03-03T08:10:00.403Z,62.59
2019-03-03T08:12:27.814Z,62.65
2019-03-03T08:14:55.228Z,62.40
2019-03-03T08:17:22.619Z,62.03
2019-03-03T08:19:50.025Z,61.87
2019-03-03T08:22:17.082Z,62.20
2019-03-03T08:24:44.497Z,62.04
2019-03-03T08:27:11.904Z,61.46
2019-03-03T08:29:39.308Z,60.52
2019-03-03T08:32:06.711Z,59.81
2019-03-03T08:34:34.214Z,59.32
2019-03-03T08:37:01.656Z,58.92
2019-03-03T08:39:29.215Z,58.76
2019-03-03T08:41:56.606Z,58.85
2019-03-03T08:44:24.079Z,58.56
2019-03-03T08:47:08.210Z,58.83
2019-03-03T08:49:35.654Z,59.12
2019-03-03T08:52:05.652Z,58.57
2019-03-03T08:54:38.657Z,57.82
2019-03-03T08:57:06.431Z,57.84
2019-03-03T08:59:39.344Z,57.33
2019-03-03T09:02:06.750Z,56.89
2019-03-03T09:04:44.869Z,56.83
2019-03-03T09:07:28.101Z,56.95
2019-03-03T09:09:59.963Z,56.64
2019-03-03T09:12:42.590Z,55.95
2019-03-03T09:15:11.510Z,55.50
2019-03-03T09:17:42.018Z,55.26
2019-03-03T09:20:19.326Z,54.91
2019-03-03T09:22:53.186Z,54.98
2019-03-03T09:25:25.809Z,55.24
2019-03-03T09:28:09.861Z,55.20
2019-03-03T09:30:37.762Z,55.14
2019-03-03T09:33:06.223Z,54.79
2019-03-03T09:35:49.577Z,53.93
2019-03-03T09:38:32.322Z,53.16
2019-03-03T09:41:05.279Z,51.46
2019-03-03T09:43:49.032Z,50.13
2019-03-03T09:46:21.651Z,49.18
2019-03-03T09:48:54.545Z,48.59
2019-03-03T09:51:22.767Z,48.84
2019-03-03T09:53:57.592Z,48.33
2019-03-03T09:56:30.911Z,48.73
2019-03-03T10:01:56.151Z,47.56
2019-03-03T10:04:24.500Z,47.92
2019-03-03T10:07:10.886Z,47.93
2019-03-03T10:09:43.889Z,47.15
2019-03-03T10:12:12.128Z,46.71
2019-03-03T10:14:41.439Z,46.97
2019-03-03T10:17:10.890Z,47.27
2019-03-03T10:19:41.765Z,47.54
2019-03-03T10:22:11.591Z,47.79
2019-03-03T10:27:38.602Z,44.85
2019-03-03T10:30:10.332Z,43.87
2019-03-03T10:32:37.736Z,43.80
2019-03-03T10:35:06.955Z,44.19
2019-03-03T10:37:34.381Z,44.07
2019-03-03T10:42:57.386Z,40.56
2019-03-03T10:45:30.507Z,41.03
2019-03-03T10:48:03.455Z,41.57
2019-03-03T10:50:31.674Z,41.33
2019-03-03T10:53:01.586Z,41.26
2019-03-03T10:55:34.436Z,42.19
2019-03-03T10:58:17.802Z,42.75
2019-03-03T11:03:46.731Z,40.21
2019-03-03T11:06:14.207Z,38.72
2019-03-03T11:08:47.204Z,38.16
2019-03-03T11:11:20.223Z,38.60
2019-03-03T11:14:03.534Z,38.58
2019-03-03T11:16:36.453Z,38.20
2019-03-03T11:19:03.817Z,37.27
2019-03-03T11:21:48.604Z,37.10
2019-03-03T11:24:19.272Z,36.98
2019-03-03T11:26:46.950Z,36.89
2019-03-03T11:29:29.716Z,36.55
2019-03-03T11:34:56.767Z,35.87
2019-03-03T11:37:29.952Z,36.29
2019-03-03T11:40:00.341Z,36.44
2019-03-03T11:42:27.581Z,36.71
2019-03-03T11:44:55.195Z,36.59
2019-03-03T11:47:22.592Z,36.49
2019-03-03T11:49:50.005Z,37.22
2019-03-03T11:52:23.148Z,38.37
2019-03-03T11:55:01.324Z,39.78
2019-03-03T11:57:30.219Z,39.79
2019-03-03T12:00:01.461Z,40.19
2019-03-03T12:05:43.620Z,40.48
2019-03-03T12:11:08.133Z,41.07
2019-03-03T12:13:37.919Z,41.05
2019-03-03T12:16:05.351Z,41.03
2019-03-03T12:18:39.059Z,40.96
2019-03-03T12:21:21.389Z,40.83
2019-03-03T12:23:51.179Z,41.19
2019-03-03T12:26:19.372Z,41.53
2019-03-03T12:28:50.272Z,40.89
2019-03-03T12:31:20.573Z,39.75
2019-03-03T12:36:58.844Z,37.65
2019-03-03T12:42:24.729Z,39.18
2019-03-03T12:45:09.924Z,40.17
2019-03-03T12:47:42.335Z,41.22
2019-03-03T12:50:11.455Z,41.57
2019-03-03T12:52:42.778Z,41.14
2019-03-03T12:55:12.697Z,40.86
2019-03-03T12:57:55.824Z,39.83
2019-03-03T13:00:28.801Z,37.36
2019-03-03T13:03:02.031Z,35.48
2019-03-03T13:05:35.247Z,35.15
2019-03-03T13:08:05.245Z,34.61
2019-03-03T13:10:47.526Z,33.86
2019-03-03T13:13:15.451Z,33.53
2019-03-03T13:15:42.918Z,33.63
2019-03-03T13:18:13.244Z,33.56
2019-03-03T13:20:55.553Z,34.04
2019-03-03T13:23:23.810Z,34.85
2019-03-03T13:25:51.318Z,34.50
2019-03-03T13:31:12.750Z,31.80
2019-03-03T13:33:56.239Z,33.76
2019-03-03T13:36:24.147Z,34.42
2019-03-03T13:38:55.969Z,33.63
2019-03-03T13:41:23.402Z,32.56
2019-03-03T13:43:50.816Z,31.28
2019-03-03T13:46:18.224Z,30.92
2019-03-03T13:48:45.634Z,31.73
2019-03-03T13:51:13.140Z,32.84
2019-03-03T13:53:40.534Z,33.18
2019-03-03T13:56:07.971Z,33.96
2019-03-03T13:58:35.428Z,34.16
2019-03-03T14:01:02.860Z,34.13
2019-03-03T14:03:30.632Z,33.51
2019-03-03T14:05:58.190Z,33.28
2019-03-03T14:08:25.624Z,34.25
2019-03-03T14:10:53.061Z,35.53
2019-03-03T14:13:20.462Z,36.17
2019-03-03T14:15:47.867Z,36.65
2019-03-03T14:18:15.339Z,36.92
2019-03-03T14:20:42.759Z,37.45
2019-03-03T14:23:10.235Z,37.73
2019-03-03T14:25:37.655Z,37.48
2019-03-03T14:28:05.090Z,36.85
2019-03-03T14:30:32.487Z,36.67
2019-03-03T14:32:59.963Z,36.20
2019-03-03T14:35:27.405Z,34.87
2019-03-03T14:37:54.812Z,34.49
2019-03-03T14:40:22.247Z,34.49
2019-03-03T14:42:49.656Z,34.35
2019-03-03T14:45:17.095Z,34.32
2019-03-03T14:47:44.686Z,34.29
2019-03-03T14:50:12.163Z,34.39
2019-03-03T14:52:39.791Z,34.71
2019-03-03T14:55:08.154Z,34.84
2019-03-03T14:57:35.609Z,34.49
2019-03-03T15:00:03.051Z,33.94
2019-03-03T15:02:30.595Z,33.48
2019-03-03T15:04:57.989Z,31.37
2019-03-03T15:07:25.387Z,28.44
2019-03-03T15:09:52.829Z,26.13
2019-03-03T15:12:21.147Z,25.11
2019-03-03T15:14:48.585Z,25.02
2019-03-03T15:17:16.014Z,24.65
2019-03-03T15:19:43.449Z,21.45
2019-03-03T15:22:10.851Z,20.95
2019-03-03T15:24:38.249Z,19.63
2019-03-03T15:27:05.216Z,20.22
2019-03-03T15:29:32.625Z,20.22
2019-03-03T15:32:00.073Z,24.79
2019-03-03T15:34:27.502Z,28.16
2019-03-03T15:36:54.995Z,30.24
2019-03-03T15:39:22.442Z,31.73
2019-03-03T15:41:49.836Z,33.03
2019-03-03T15:44:17.683Z,33.91
2019-03-03T15:46:45.125Z,34.38
2019-03-03T15:49:12.623Z,35.01
2019-03-03T15:51:40.008Z,35.53
2019-03-03T15:54:07.423Z,36.21
2019-03-03T15:56:34.817Z,37.02
2019-03-03T15:59:02.218Z,37.17
2019-03-03T16:01:29.629Z,36.79
2019-03-03T16:03:57.115Z,36.90
2019-03-03T16:06:24.507Z,37.85
2019-03-03T16:08:51.912Z,37.83
2019-03-03T16:11:19.348Z,37.13
2019-03-03T16:13:46.774Z,31.73
2019-03-03T16:16:14.209Z,31.50
2019-03-03T16:18:41.642Z,34.16
2019-03-03T16:21:09.205Z,35.30
2019-03-03T16:23:36.692Z,36.10
2019-03-03T16:26:04.252Z,36.07
2019-03-03T16:28:31.680Z,35.87
2019-03-03T16:30:59.132Z,35.21
2019-03-03T16:33:26.578Z,31.03
2019-03-03T16:35:54.811Z,27.58
2019-03-03T16:38:22.315Z,30.27
2019-03-03T16:40:49.750Z,33.44
2019-03-03T16:43:17.171Z,35.76
2019-03-03T16:45:44.597Z,36.85
2019-03-03T16:48:12.004Z,35.95
2019-03-03T16:50:39.459Z,35.22
2019-03-03T16:53:06.851Z,36.17
2019-03-03T16:55:34.275Z,36.93
2019-03-03T16:58:01.695Z,37.96
2019-03-03T17:00:29.094Z,38.55
2019-03-03T17:02:56.487Z,38.96
2019-03-03T17:05:24.031Z,39.79
2019-03-03T17:07:51.460Z,40.63
2019-03-03T17:10:19.567Z,41.33
2019-03-03T17:12:46.954Z,42.64
2019-03-03T17:15:14.399Z,43.55
2019-03-03T17:17:41.784Z,44.29
2019-03-03T17:20:09.206Z,44.84
2019-03-03T17:22:36.600Z,44.99
2019-03-03T17:25:13.004Z,45.21
2019-03-03T17:27:40.417Z,45.16
2019-03-03T17:30:09.500Z,45.27
2019-03-03T17:32:36.933Z,45.34
2019-03-03T17:35:04.364Z,45.40
2019-03-03T17:37:32.799Z,45.43
2019-03-03T17:40:00.315Z,45.50
2019-03-03T17:42:27.681Z,45.45
2019-03-03T17:44:55.091Z,45.34
2019-03-03T17:47:22.503Z,45.28
2019-03-03T17:49:49.972Z,45.02
2019-03-03T17:52:17.414Z,44.76
2019-03-03T17:54:44.883Z,44.37
2019-03-03T17:57:12.292Z,43.82
2019-03-03T17:59:39.708Z,43.83
2019-03-03T18:02:08.048Z,44.07
2019-03-03T18:04:35.489Z,44.38
2019-03-03T18:07:03.602Z,44.69
2019-03-03T18:09:31.394Z,44.65
2019-03-03T18:11:58.855Z,44.58
2019-03-03T18:14:26.306Z,44.31
2019-03-03T18:16:54.107Z,44.35
2019-03-03T18:19:21.715Z,44.75
2019-03-03T18:21:49.216Z,44.38
2019-03-03T18:24:16.616Z,44.06
2019-03-03T18:26:44.059Z,44.19
2019-03-03T18:29:11.539Z,44.49
2019-03-03T18:31:38.942Z,44.43
2019-03-03T18:34:06.573Z,44.25
2019-03-03T18:36:33.967Z,44.35
2019-03-03T18:39:01.375Z,44.79
2019-03-03T18:41:28.827Z,44.95
2019-03-03T18:43:56.224Z,45.07
2019-03-03T18:46:23.652Z,44.93
2019-03-03T18:48:51.061Z,44.85
2019-03-03T18:51:18.497Z,45.29
2019-03-03T18:53:45.992Z,44.97
2019-03-03T18:56:13.399Z,44.88
2019-03-03T18:58:40.811Z,45.05
2019-03-03T19:01:08.219Z,45.03
2019-03-03T19:03:35.625Z,44.74
2019-03-03T19:06:03.076Z,45.17
2019-03-03T19:08:30.533Z,45.35
2019-03-03T19:10:57.977Z,45.15
2019-03-03T19:13:25.479Z,45.44
2019-03-03T19:15:52.882Z,45.67
2019-03-03T19:18:20.341Z,45.38
2019-03-03T19:20:47.773Z,45.23
2019-03-03T19:23:15.211Z,45.44
2019-03-03T19:25:42.615Z,45.69
2019-03-03T19:28:10.019Z,46.03
2019-03-03T19:30:37.424Z,46.24
2019-03-03T19:33:23.391Z,46.07
2019-03-03T19:35:50.809Z,46.27
2019-03-03T19:38:18.211Z,46.47
2019-03-03T19:40:45.639Z,46.53
2019-03-03T19:43:13.760Z,46.51
2019-03-03T19:45:42.009Z,46.53
2019-03-03T19:48:09.520Z,46.58
2019-03-03T19:50:36.913Z,46.71
2019-03-03T19:53:04.329Z,47.25
2019-03-03T19:55:31.749Z,47.61
2019-03-03T19:57:59.167Z,47.72
2019-03-03T20:00:35.375Z,47.76
2019-03-03T20:02:55.591Z,47.92
2019-03-03T20:05:23.127Z,48.11
2019-03-03T20:07:50.538Z,48.04
2019-03-03T20:10:17.947Z,48.13
2019-03-03T20:12:45.427Z,48.48
2019-03-03T20:15:12.841Z,48.72
2019-03-03T20:17:40.249Z,48.82
2019-03-03T20:20:09.438Z,48.84
2019-03-03T20:22:37.716Z,49.32
2019-03-03T20:25:04.247Z,49.46
2019-03-03T20:27:31.646Z,49.57
2019-03-03T20:29:59.065Z,49.32
2019-03-03T20:32:26.499Z,49.47
2019-03-03T20:34:53.979Z,49.78
2019-03-03T20:37:21.516Z,50.13
2019-03-03T20:39:48.922Z,50.43
2019-03-03T20:42:16.387Z,50.54
2019-03-03T20:44:43.802Z,50.63
2019-03-03T20:47:11.227Z,50.35
2019-03-03T20:49:38.816Z,50.62
2019-03-03T20:52:06.834Z,50.98
2019-03-03T20:54:34.246Z,51.67
2019-03-03T20:57:01.666Z,51.62
2019-03-03T20:59:29.229Z,51.70
2019-03-03T21:01:56.616Z,51.94
2019-03-03T21:04:24.034Z,51.81
2019-03-03T21:06:51.472Z,52.00
2019-03-03T21:09:18.917Z,52.09
2019-03-03T21:11:46.386Z,52.45
2019-03-03T21:14:13.810Z,52.61
2019-03-03T21:16:41.322Z,52.59
2019-03-03T21:19:08.720Z,52.60
2019-03-03T21:21:36.158Z,52.92
2019-03-03T21:24:03.626Z,53.05
2019-03-03T21:26:31.035Z,53.15
2019-03-03T21:28:58.494Z,53.15
2019-03-03T21:31:25.902Z,53.24
2019-03-03T21:33:53.394Z,53.33
2019-03-03T21:36:20.816Z,53.29
2019-03-03T21:38:48.380Z,53.42
2019-03-03T21:41:15.795Z,53.48
2019-03-03T21:43:43.222Z,53.72
2019-03-03T21:46:11.169Z,53.83
2019-03-03T21:48:38.603Z,53.90
2019-03-03T21:51:06.797Z,53.92
2019-03-03T21:53:34.523Z,54.22
2019-03-03T21:56:01.974Z,54.44
2019-03-03T21:58:29.397Z,54.44
2019-03-03T22:00:56.848Z,54.41
2019-03-03T22:03:25.266Z,54.51
2019-03-03T22:05:52.671Z,54.75
2019-03-03T22:08:20.086Z,54.84
2019-03-03T22:10:47.557Z,54.93
2019-03-03T22:13:15.003Z,54.96
2019-03-03T22:15:42.420Z,52.58
2019-03-03T22:18:10.761Z,50.77
2019-03-03T22:20:38.163Z,49.75
2019-03-03T22:23:05.587Z,49.23
2019-03-03T22:25:33.017Z,48.66
2019-03-03T22:28:00.434Z,48.51
2019-03-03T22:30:28.003Z,48.28
2019-03-03T22:32:55.402Z,47.76
2019-03-03T22:35:22.817Z,47.16
2019-03-03T22:37:50.223Z,46.25
2019-03-03T22:40:18.361Z,45.30
2019-03-03T22:42:45.763Z,45.01
2019-03-03T22:45:14.954Z,44.41
2019-03-03T22:47:42.346Z,44.51
2019-03-03T22:50:10.266Z,43.99
2019-03-03T22:52:37.251Z,43.88
2019-03-03T22:55:04.246Z,43.64
2019-03-03T22:57:31.235Z,43.52
2019-03-03T22:59:58.177Z,43.17
2019-03-03T23:02:25.126Z,42.97
2019-03-03T23:04:52.814Z,42.78
2019-03-03T23:07:19.785Z,42.45
2019-03-03T23:09:46.774Z,42.22
2019-03-03T23:15:13.015Z,40.79
2019-03-03T23:17:41.889Z,41.08
2019-03-03T23:20:14.813Z,40.99
2019-03-03T23:22:46.771Z,41.09
2019-03-03T23:25:26.341Z,41.15
2019-03-03T23:27:53.305Z,41.08
2019-03-03T23:30:20.242Z,40.99
2019-03-03T23:32:47.287Z,40.89
2019-03-03T23:35:14.262Z,40.73
2019-03-03T23:37:41.233Z,40.47
2019-03-03T23:40:08.245Z,40.35
2019-03-03T23:42:35.193Z,40.27
2019-03-03T23:45:02.165Z,40.26
2019-03-03T23:47:29.107Z,40.22
2019-03-03T23:49:56.136Z,40.05
2019-03-03T23:52:23.082Z,40.25
2019-03-03T23:54:50.066Z,40.39
2019-03-03T23:57:17.017Z,40.56
2019-03-03T23:59:43.979Z,40.80
